Map

Track Data

SID SEASON NUMBER BASIN SUBBASIN NAME ISO_TIME NATURE LAT LON WMO_WIND WMO_PRES WMO_AGENCY TRACK_TYPE DIST2LAND LANDFALL IFLAG USA_AGENCY USA_ATCF_ID USA_LAT USA_LON USA_RECORD USA_STATUS USA_WIND USA_PRES USA_SSHS USA_R34_NE USA_R34_SE USA_R34_SW USA_R34_NW USA_R50_NE USA_R50_SE USA_R50_SW USA_R50_NW USA_R64_NE USA_R64_SE USA_R64_SW USA_R64_NW USA_POCI USA_ROCI USA_RMW USA_EYE TOKYO_LAT TOKYO_LON TOKYO_GRADE TOKYO_WIND TOKYO_PRES TOKYO_R50_DIR TOKYO_R50_LONG TOKYO_R50_SHORT TOKYO_R30_DIR TOKYO_R30_LONG TOKYO_R30_SHORT TOKYO_LAND CMA_LAT CMA_LON CMA_CAT CMA_WIND CMA_PRES HKO_LAT HKO_LON HKO_CAT HKO_WIND HKO_PRES NEWDELHI_LAT NEWDELHI_LON NEWDELHI_GRADE NEWDELHI_WIND NEWDELHI_PRES NEWDELHI_CI NEWDELHI_DP NEWDELHI_POCI REUNION_LAT REUNION_LON REUNION_TYPE REUNION_WIND REUNION_PRES REUNION_TNUM REUNION_CI REUNION_RMW REUNION_R34_NE REUNION_R34_SE REUNION_R34_SW REUNION_R34_NW REUNION_R50_NE REUNION_R50_SE REUNION_R50_SW REUNION_R50_NW REUNION_R64_NE REUNION_R64_SE REUNION_R64_SW REUNION_R64_NW BOM_LAT BOM_LON BOM_TYPE BOM_WIND BOM_PRES BOM_TNUM BOM_CI BOM_RMW BOM_R34_NE BOM_R34_SE BOM_R34_SW BOM_R34_NW BOM_R50_NE BOM_R50_SE BOM_R50_SW BOM_R50_NW BOM_R64_NE BOM_R64_SE BOM_R64_SW BOM_R64_NW BOM_ROCI BOM_POCI BOM_EYE BOM_POS_METHOD BOM_PRES_METHOD NADI_LAT NADI_LON NADI_CAT NADI_WIND NADI_PRES WELLINGTON_LAT WELLINGTON_LON WELLINGTON_WIND WELLINGTON_PRES DS824_LAT DS824_LON DS824_STAGE DS824_WIND DS824_PRES TD9636_LAT TD9636_LON TD9636_STAGE TD9636_WIND TD9636_PRES TD9635_LAT TD9635_LON TD9635_WIND TD9635_PRES TD9635_ROCI NEUMANN_LAT NEUMANN_LON NEUMANN_CLASS NEUMANN_WIND NEUMANN_PRES MLC_LAT MLC_LON MLC_CLASS MLC_WIND MLC_PRES USA_GUST BOM_GUST BOM_GUST_PER REUNION_GUST REUNION_GUST_PER USA_SEAHGT USA_SEARAD_NE USA_SEARAD_SE USA_SEARAD_SW USA_SEARAD_NW STORM_SPEED STORM_DIR
1972051S12115 1972 16 SI WA GIGI:TESSIE 1972-02-20 00:00:00 TS -11.8000 115.100 1004 bom main 336 336 O_____O__OO___ jtwc_sh SH191972 -11.8000 115.100 40 0 -11.8000 115.100 1004 -11.8000 115.100 TC 20 1004 -11.8000 115.100 2 17 249
1972051S12115 1972 16 SI WA GIGI:TESSIE 1972-02-20 03:00:00 TS -12.1018 114.301 1004 bom main 371 371 P_____O__PP___ SH191972 -12.0979 114.303 35 0 -12.1000 114.300 1004 -12.1004 114.303 TC 20 1004 -12.1125 114.298 2 16 249
1972051S12115 1972 16 SI WA GIGI:TESSIE 1972-02-20 06:00:00 TS -12.3848 113.537 1004 bom main 420 420 O_____O__OP_O_ jtwc_sh SH191972 -12.4000 113.500 30 -1 -12.4000 113.500 1004 -12.4000 113.500 TC 20 1004 -12.4191 113.496 2 -12.1000 114.100 TC 25 1003 16 249
1972051S12115 1972 16 SI WA GIGI:TESSIE 1972-02-20 09:00:00 TS -12.6847 112.754 1002 bom main 472 472 P_____O__PP_P_ SH191972 -12.7073 112.692 27 -1 -12.7000 112.700 1002 -12.6998 112.692 TC 22 1003 -12.7161 112.696 2 -12.4704 113.351 TC 25 1003 16 249
1972051S12115 1972 16 SI WA GIGI:TESSIE 1972-02-20 12:00:00 TS -12.9739 111.991 1003 bom main 516 515 O_____O__OO_O_ jtwc_sh SH191972 -13.0000 111.900 25 -1 -13.0000 111.900 1003 -13.0000 111.900 TC 25 1003 -13.0000 111.900 4 -12.8000 112.600 TC 25 1003 16 249
1972051S12115 1972 16 SI WA GIGI:TESSIE 1972-02-20 15:00:00 TS -13.2437 111.244 1003 bom main 540 540 P_____O__PP_P_ SH191972 -13.2573 111.135 22 -1 -13.3000 111.100 1003 -13.3148 111.135 TC 25 1002 -13.2682 111.113 4 -13.0648 111.850 TC 25 1002 15 250
1972051S12115 1972 16 SI WA GIGI:TESSIE 1972-02-20 18:00:00 TS -13.5037 110.509 1002 bom main 586 586 O_____O__OP_O_ jtwc_sh SH191972 -13.5000 110.400 20 -1 -13.6000 110.400 1002 -13.6000 110.400 TC 25 1002 -13.5224 110.352 4 -13.3000 111.100 TC 25 1002 15 251
1972051S12115 1972 16 SI WA GIGI:TESSIE 1972-02-20 21:00:00 TS -13.7371 109.793 1002 bom main 623 623 P_____O__PP_P_ SH191972 -13.7500 109.662 20 -1 -13.8000 109.800 1002 -13.8074 109.670 TC 25 1002 -13.7653 109.641 4 -13.5500 110.320 TC 25 1002 14 251
1972051S12115 1972 16 SI WA GIGI:TESSIE 1972-02-21 00:00:00 TS -13.9667 109.100 1002 bom main 672 672 O_____O__OO_O_ jtwc_sh SH191972 -14.0000 109.000 20 -1 -14.0000 109.000 1002 -14.0000 109.000 TC 25 1002 -14.0000 109.000 4 -13.8000 109.600 TC 25 1002 13 249
1972051S12115 1972 16 SI WA GIGI:TESSIE 1972-02-21 03:00:00 TS -14.2082 108.527 998 bom main 713 713 P_____O__PP_P_ SH191972 -14.2572 108.462 20 -1 -14.2000 108.400 998 -14.2498 108.405 TC 32 998 -14.2353 108.436 4 -14.0498 108.997 TC 30 999 11 244
1972051S12115 1972 16 SI WA GIGI:TESSIE 1972-02-21 06:00:00 TS -14.4606 108.041 994 bom main 751 751 O_____O__OP_O_ jtwc_sh SH191972 -14.5000 108.000 20 -1 -14.5000 107.900 994 -14.5000 107.900 TC 40 994 -14.4639 107.945 4 -14.3000 108.500 TC 35 996 10 242
1972051S12115 1972 16 SI WA GIGI:TESSIE 1972-02-21 09:00:00 TS -14.6775 107.605 990 bom main 777 777 P_____O__PP_P_ SH191972 -14.7074 107.527 22 -1 -14.7000 107.500 990 -14.7073 107.477 TC 45 990 -14.6855 107.505 4 -14.5572 108.092 TC 42 992 9 243
1972051S12115 1972 16 SI WA GIGI:TESSIE 1972-02-21 12:00:00 TS -14.8833 107.200 986 bom main 805 805 O_____O__OO_O_ jtwc_sh SH191972 -14.9000 107.100 25 -1 -14.9000 107.100 986 -14.9000 107.100 TC 50 986 -14.9000 107.100 2 40 -14.8000 107.700 TC 50 988 9 242
1972051S12115 1972 16 SI WA GIGI:TESSIE 1972-02-21 15:00:00 TS -15.0840 106.811 982 bom main 835 835 P_____O__PP_P_ SH191972 -15.0998 106.742 25 -1 -15.1000 106.700 982 -15.1000 106.692 TC 55 982 -15.0893 106.772 2 36 -15.0150 107.215 TC 57 983 8 242
1972051S12115 1972 16 SI WA GIGI:TESSIE 1972-02-21 18:00:00 TS -15.2792 106.427 978 bom main 864 864 O_____O__OP_O_ jtwc_sh SH191972 -15.3000 106.400 25 -1 -15.3000 106.300 978 -15.3000 106.300 TC 60 978 -15.2749 106.460 2 32 -15.2000 106.700 TC 65 979 8 242
1972051S12115 1972 16 SI WA GIGI:TESSIE 1972-02-21 21:00:00 TS -15.4627 106.066 974 bom main 892 892 P_____O__PP_P_ SH191972 -15.4847 106.052 27 -1 -15.5000 105.900 974 -15.4844 106.017 TC 65 974 -15.4732 106.094 2 28 -15.3491 106.282 TC 67 975 9 244
1972051S12115 1972 16 SI WA GIGI:TESSIE 1972-02-22 00:00:00 TS -15.6667 105.617 970 bom main 927 927 O_____O__OO_O_ jtwc_sh SH191972 -15.7000 105.600 30 -1 -15.7000 105.600 970 -15.7000 105.600 TC 70 970 -15.7000 105.600 1 25 -15.5000 105.700 TC 70 972 13 248
1972051S12115 1972 16 SI WA GIGI:TESSIE 1972-02-22 03:00:00 TS -15.9403 104.865 968 bom main 965 965 P_____O__PP_P_ SH191972 -15.9846 104.990 30 -1 -16.0000 104.700 968 -15.9854 104.825 TC 72 968 -15.9866 104.947 1 23 -15.7003 104.740 TC 67 17 250
1972051S12115 1972 16 SI WA GIGI:TESSIE 1972-02-22 06:00:00 TS -16.2330 103.992 967 bom main 1019 1019 O_____O__OP_O_ jtwc_sh SH191972 -16.3000 104.200 30 -1 -16.3000 103.900 967 -16.3000 103.900 TC 75 967 -16.2982 104.155 1 22 -15.9000 103.600 TC 65 18 252
1972051S12115 1972 16 SI WA GIGI:TESSIE 1972-02-22 09:00:00 TS -16.5172 103.067 966 bom main 1080 1080 P_____O__PP_P_ SH191972 -16.6145 103.282 27 -1 -16.6000 103.000 966 -16.6139 103.102 TC 77 966 -16.6107 103.235 1 21 -16.0497 102.500 TC 57 19 253
1972051S12115 1972 16 SI WA GIGI:TESSIE 1972-02-22 12:00:00 TS -16.7833 102.067 965 bom main 1151 1151 O_____O__OO_O_ jtwc_sh SH191972 -16.9000 102.200 25 -1 -16.9000 102.200 965 -16.9000 102.200 TC 80 965 -16.9000 102.200 1 20 -16.2000 101.400 TC 50 21 257
1972051S12115 1972 16 SI WA GIGI:TESSIE 1972-02-22 15:00:00 TS -16.9954 100.899 965 bom main 1229 1229 P_____O__PP_P_ SH191972 -17.1150 100.980 25 -1 -17.1000 101.000 965 -17.1150 101.060 TC 80 965 -17.1353 101.034 1 21 -16.3919 100.342 TC 45 23 260
1972051S12115 1972 16 SI WA GIGI:TESSIE 1972-02-22 18:00:00 TS -17.1902 99.6787 965 bom main 1309 1309 O_____O__OP_O_ jtwc_sh SH191972 -17.3000 99.7000 25 -1 -17.3000 99.8000 965 -17.3000 99.8000 TC 80 965 -17.3412 99.7720 1 22 -16.6000 99.3000 TC 40 24 260
1972051S12115 1972 16 SI WA GIGI:TESSIE 1972-02-22 21:00:00 TS -17.3888 98.4557 965 bom main 1392 1392 P_____O__PP_P_ SH191972 -17.4998 98.4549 25 -1 -17.5000 98.6000 965 -17.5001 98.5125 TC 80 965 -17.5260 98.4992 1 23 -16.8075 98.2126 TC 35 23 262
1972051S12115 1972 16 SI WA GIGI:TESSIE 1972-02-23 00:00:00 TS -17.5185 97.2741 965 bom main 1473 1473 O_____O__OO_O_ jtwc_sh SH191972 -17.7000 97.3000 25 -1 -17.7000 97.3000 965 -17.7000 97.3000 TC 80 965 -17.7000 97.3000 1 25 -17.0000 97.2000 TC 30 20 263
1972051S12115 1972 16 SI WA GIGI:TESSIE 1972-02-23 03:00:00 TS -17.6476 96.3274 964 bom main 1547 1547 P_____O__PP_P_ SH191972 -17.9065 96.3049 25 -1 -17.9000 96.3000 964 -17.9064 96.2974 TC 80 964 -17.8746 96.2839 1 26 -17.1417 96.3620 TC 32 17 261
1972051S12115 1972 16 SI WA GIGI:TESSIE 1972-02-23 06:00:00 TS -17.7837 95.4736 963 bom main 1620 1620 O_____O__OP_O_ jtwc_sh SH191972 -18.1000 95.4000 25 -1 -18.1000 95.4000 963 -18.1000 95.4000 TC 80 963 -18.0456 95.3514 1 27 -17.3000 95.6000 TC 35 16 260
1972051S12115 1972 16 SI WA GIGI:TESSIE 1972-02-23 09:00:00 TS -17.9269 94.6304 962 bom main 1693 1693 P_____O__PP_P_ SH191972 -18.2643 94.5073 25 -1 -18.2000 94.5000 962 -18.2495 94.4921 TC 82 960 -18.2189 94.4682 1 28 -17.5273 94.7924 TC 37 17 258
1972051S12115 1972 16 SI WA GIGI:TESSIE 1972-02-23 12:00:00 TS -18.1333 93.7778 958 bom main 1768 1768 O_____O__OO_O_ jtwc_sh SH191972 -18.4000 93.6000 25 -1 -18.4000 93.6000 958 -18.4000 93.6000 TC 85 958 -18.4000 93.6000 1 30 -17.8000 94.0000 TC 40 17 256
1972051S12115 1972 16 SI WA GIGI:TESSIE 1972-02-23 15:00:00 TS -18.3360 92.8839 956 bom main 1853 1853 P_____O__PP_P_ SH191972 -18.4776 92.5844 -1 -18.6000 92.7000 956 -18.5921 92.6999 TC 87 956 -18.5454 92.5830 1 28 -18.0846 93.2422 TC 42 17 256
1972051S12115 1972 16 SI WA GIGI:TESSIE 1972-02-23 18:00:00 TS -18.5661 92.0103 954 bom main 1946 1946 O_____O__OP_O_ jtwc_sh SH191972 -18.6000 91.6000 -1 -18.8000 91.8000 954 -18.8000 91.8000 TC 90 954 -18.7048 91.5899 1 27 -18.4000 92.5000 TC 45 17 253
1972051S12115 1972 16 SI WA GIGI:TESSIE 1972-02-23 21:00:00 TS -18.8267 91.1644 952 bom main 2025 2025 P_____O__PP_P_ SH191972 -18.8400 90.6953 -1 -19.0000 90.9000 952 -18.9106 90.8020 TC 92 952 -18.9114 90.7019 1 26 -18.7351 91.7125 TC 47 16 248
1972051S12115 1972 16 SI WA GIGI:TESSIE 1972-02-24 00:00:00 TS -19.1556 90.4445 950 bom main 2118 2118 O_____O__OO_O_ jtwc_sh SH191972 -19.2000 90.0000 -1 -19.2000 90.0000 950 4 -19.2000 90.0000 TC 95 950 -19.2000 90.0000 1 25 -19.1000 91.0000 TC 50 14 234
1972051S12115 1972 16 SI MM GIGI:TESSIE 1972-02-24 03:00:00 TS -19.6238 89.9953 954 bom main 2179 2179 P_____O__PP_P_ SH191972 -19.6694 89.6022 -1 -19.7000 89.7000 954 -19.9992 89.6450 TC 90 954 -19.6110 89.5759 1 25 -19.4921 90.4547 TC 50 13 215
1972051S12115 1972 16 SI MM GIGI:TESSIE 1972-02-24 06:00:00 TS -20.1894 89.6800 958 bom main 2246 2246 O_____O__OP_O_ jtwc_sh SH191972 -20.2000 89.4000 -1 -20.8000 89.5000 958 -20.8000 89.5000 TC 85 958 -20.1068 89.3384 1 25 -19.9000 90.0000 TC 50 11 212
1972051S12115 1972 16 SI MM GIGI:TESSIE 1972-02-24 09:00:00 TS -20.5697 89.3758 962 bom main 2299 2299 P_____O__PP_P_ SH191972 -20.6999 89.2346 -1 -20.7000 89.3000 962 -21.0449 89.2918 TC 80 962 -20.6494 89.2069 1 25 -20.3056 89.5393 TC 52 10 214
1972051S12115 1972 16 SI MM GIGI:TESSIE 1972-02-24 12:00:00 TS -20.9941 89.1000 966 bom main 2351 2351 O_____O__OO_O_ jtwc_sh SH191972 -21.2000 89.1000 -1 -21.2000 89.1000 966 -21.2000 89.1000 TC 75 966 -21.2000 89.1000 1 25 -20.7000 89.1000 TC 55 10 213
1972051S12115 1972 16 SI MM GIGI:TESSIE 1972-02-24 15:00:00 TS -21.4270 88.7873 970 bom main 2404 2404 P_____O__PP_P_ SH191972 -21.7000 88.9074 -1 -21.7000 88.9000 970 -21.6550 88.9000 TC 70 970 -21.7274 88.9517 1 -21.0131 88.6828 TC 11 217
1972051S12115 1972 16 SI MM GIGI:TESSIE 1972-02-24 18:00:00 TS -21.8388 88.4202 974 bom main 2464 2464 O_____O__OP_P_ jtwc_sh SH191972 -22.2000 88.7000 -1 -22.2000 88.7000 974 -22.2000 88.7000 TC 65 974 -22.2315 88.7597 1 -21.2654 88.2895 TC 11 221
1972051S12115 1972 16 SI MM GIGI:TESSIE 1972-02-24 21:00:00 TS -22.2215 88.0427 977 bom main 2525 2525 P_____O__PP_P_ SH191972 -22.8113 88.6279 -1 -22.7000 88.5000 977 -22.7221 88.5594 TC 62 977 -22.7198 88.5378 1 -21.4722 87.9139 TC 10 225
1972051S12115 1972 16 SI MM GIGI:TESSIE 1972-02-25 00:00:00 TS -22.5739 87.6217 980 bom main 2585 2585 O_____O__OO_P_ jtwc_sh SH191972 -23.2000 88.3000 -1 -23.2000 88.3000 980 -23.2000 88.3000 TC 60 980 -23.2000 88.3000 1 -21.6488 87.5496 TC 11 236
1972051S12115 1972 16 SI MM GIGI:TESSIE 1972-02-25 03:00:00 TS -22.8478 87.0417 982 bom main 2646 2646 P_____O__P__P_ SH191972 -22.9677 87.2766 -1 -23.6000 87.7000 982 -23.6028 87.7604 TC 57 982 1 -21.8107 87.1900 TC 10 242
1972051S12115 1972 16 SI MM GIGI:TESSIE 1972-02-25 06:00:00 TS -23.0321 86.6744 984 bom main 2684 2684 O____OO__O__P_ jtwc_sh SH201972 -22.7000 86.2000 -1 -20.0000 89.0000 4 9.90000 -23.9000 87.1000 984 -23.9000 87.1000 TC 55 984 1 -21.9729 86.8283 TC 8 242
1972051S12115 1972 16 SI MM GIGI:TESSIE 1972-02-25 09:00:00 TS -23.2280 86.2635 986 bom main 2730 2730 P____PO__P__P_ SH201972 -23.0011 85.7182 -1 -20.5615 88.0562 4 -24.1000 86.5000 986 -24.0874 86.4846 TC 52 986 1 -22.1507 86.4573 TC 9 243
1972051S12115 1972 16 SI MM GIGI:TESSIE 1972-02-25 12:00:00 TS -23.4435 85.8087 988 bom main 2784 2783 O____OO__O__P_ jtwc_sh SH201972 -23.5000 85.4000 -1 -21.2000 87.2000 99 9.90000 -24.2000 85.9000 988 -24.2000 85.9000 TC 50 988 -22.3592 86.0698 TC 10 240
1972051S12115 1972 16 SI MM GIGI:TESSIE 1972-02-25 15:00:00 TS -23.7085 85.3385 990 bom main 2829 2805 P____PO__P__P_ SH201972 -23.8925 84.9147 -1 -21.9566 86.4845 99 -24.3000 85.4000 990 -24.3072 85.3773 TC 47 990 -22.6135 85.6583 TC 11 236
1972051S12115 1972 16 SI MM GIGI:TESSIE 1972-02-25 18:00:00 TS -24.0699 84.8085 992 bom main 2806 2768 O____OO__O__P_ jtwc_sh SH201972 -24.3000 84.4000 -1 -22.7000 85.8000 99 9.90000 -24.4000 84.9000 992 -24.4000 84.9000 TC 45 992 -22.9284 85.2150 TC 12 232
1972051S12115 1972 16 SI MM GIGI:TESSIE 1972-02-25 21:00:00 TS -24.4182 84.3475 994 bom main 2758 2710 P____PO__P__P_ SH201972 -24.7423 83.9071 -1 -23.2727 84.9843 99 -24.5000 84.9000 994 -24.4997 84.4499 TC 40 994 -23.3190 84.7318 TC 12 236
1972051S12115 1972 16 SI MM GIGI:TESSIE 1972-02-26 00:00:00 TS -24.7280 83.7520 996 bom main 2710 2653 O____OO__O__O_ jtwc_sh SH201972 -25.2000 83.4000 -1 -23.8000 84.2000 99 9.90000 -24.6000 84.0000 996 -24.6000 84.0000 TC 35 996 -23.8000 84.2000 TC 60 12 238
1972051S12115 1972 16 SI MM GIGI:TESSIE 1972-02-26 03:00:00 TS -25.0665 83.2204 996 bom main 2654 2609 P____PO__P__P_ SH201972 -25.6423 82.8645 -1 -24.4070 83.5546 99 -24.7000 83.5000 996 -24.6847 83.5222 TC 35 996 -24.4040 83.5909 TC 60 12 234
1972051S12115 1972 16 SI MM GIGI:TESSIE 1972-02-26 06:00:00 MX -25.4325 82.6857 996 bom main 2609 2565 O____OO__O__O_ jtwc_sh SH201972 -26.1000 82.3000 -1 -25.0000 83.0000 4 9.90000 -24.8000 83.0000 996 -24.8000 83.0000 TC 35 996 -25.0000 83.0000 EX 60 12 232
1972051S12115 1972 16 SI MM GIGI:TESSIE 1972-02-26 09:00:00 MX -25.8244 82.1314 997 bom main 2555 2513 P____PO__P__P_ SH201972 -26.5848 81.7071 -1 -25.5071 82.4915 4 -25.0000 82.4000 997 -24.9847 82.4300 TC 35 996 -25.5071 82.4915 EX 57 13 231
1972051S12115 1972 16 SI MM GIGI:TESSIE 1972-02-26 12:00:00 MX -26.2429 81.5571 997 bom main 2513 2463 O____OO__O__O_ jtwc_sh SH201972 -27.1000 81.1000 -1 -26.0000 82.0000 99 9.90000 -25.2000 81.8000 997 -25.2000 81.8000 TC 35 997 -26.0000 82.0000 EX 55 14 231
1972051S12115 1972 16 SI MM GIGI:TESSIE 1972-02-26 15:00:00 MX -26.6889 80.9447 997 bom main 2456 2410 P____PO__P__P_ SH201972 -27.6497 80.4996 -1 -26.5496 81.4795 99 -25.4000 81.1000 997 -25.3999 81.1148 TC 35 997 -26.5496 81.4795 EX 52 15 228
1972051S12115 1972 16 SI MM GIGI:TESSIE 1972-02-26 18:00:00 MX -27.2552 80.3051 998 bom main 2413 2370 O____OO__O__O_ jtwc_sh SH201972 -28.2000 79.9000 -1 -27.1000 80.9000 99 9.90000 -25.6000 80.4000 998 -25.6000 80.4000 TC 35 998 -27.1000 80.9000 EX 50 17 225
1972051S12115 1972 16 SI MM GIGI:TESSIE 1972-02-26 21:00:00 MX -27.8584 79.6394 main 2364 2327 P____PO__P__P_ SH201972 -28.7151 79.2625 -1 -27.6151 80.2148 99 -25.8000 79.7000 998 -25.8006 79.6954 TC 35 998 -27.6151 80.2148 EX 47 17 222
1972051S12115 1972 16 SI MM GIGI:TESSIE 1972-02-27 00:00:00 MX -28.5091 79.0182 reunion main 2327 2308 O____OO__O__O_ jtwc_sh SH201972 -29.2000 78.7000 -1 -28.1000 79.5000 99 9.90000 -26.0000 79.0000 998 -26.0000 79.0000 TC 35 998 -28.1000 79.5000 EX 45 16 217
1972051S12115 1972 16 SI MM GIGI:TESSIE 1972-02-27 03:00:00 MX -29.1582 78.5300 main 2306 2276 P____P______P_ SH201972 -29.6574 78.3001 -1 -28.5951 78.7978 99 TC -28.5951 78.7978 EX 42 12 219
1972051S12115 1972 16 SI MM GIGI:TESSIE 1972-02-27 06:00:00 MX -29.4722 78.1340 reunion main 2274 2258 O____O______O_ jtwc_sh SH201972 -30.1000 78.0000 -1 -29.0000 78.2000 4 9.90000 -29.0000 78.2000 EX 40 7 234
1972051S12115 1972 16 SI MM GIGI:TESSIE 1972-02-27 09:00:00 MX -29.5824 77.8487 main 2256 2224 _____P______P_ SH201972 -1 -29.2219 77.8039 4 -29.2219 77.8039 EX 40 6 277
1972051S12115 1972 16 SI MM GIGI:TESSIE 1972-02-27 12:00:00 ET -29.4000 77.5000 reunion main 2224 2206 _____O______O_ -1 -29.4000 77.5000 99 9.90000 -29.4000 77.5000 EX 40 6 259
1972051S12115 1972 16 SI MM GIGI:TESSIE 1972-02-27 15:00:00 ET -29.6998 77.1576 main 2210 2188 _____P______P_ -1 -29.6998 77.1576 99 -29.6998 77.1576 EX 40 9 225
1972051S12115 1972 16 SI MM GIGI:TESSIE 1972-02-27 18:00:00 ET -30.0000 76.8000 reunion main 2188 2161 _____O______O_ -1 -30.0000 76.8000 99 9.90000 -30.0000 76.8000 EX 40 8 232
1972051S12115 1972 16 SI MM GIGI:TESSIE 1972-02-27 21:00:00 ET -30.1998 76.4219 main 2161 2131 _____P______P_ -1 -30.1998 76.4219 99 -30.1998 76.4219 EX 40 8 240
1972051S12115 1972 16 SI MM GIGI:TESSIE 1972-02-28 00:00:00 ET -30.4000 76.0000 reunion main 2131 2087 _____O______O_ -1 -30.4000 76.0000 99 9.90000 -30.4000 76.0000 EX 40 10 237
1972051S12115 1972 16 SI MM GIGI:TESSIE 1972-02-28 03:00:00 ET -30.7226 75.5007 main 2087 2044 _____P______P_ -1 -30.7226 75.5007 99 -30.7226 75.5007 EX 40 10 235
1972051S12115 1972 16 SI MM GIGI:TESSIE 1972-02-28 06:00:00 ET -31.0000 75.0000 reunion main 2044 2025 _____O______O_ -1 -31.0000 75.0000 5 9.90000 -31.0000 75.0000 EX 40 9 246
1972051S12115 1972 16 SI MM GIGI:TESSIE 1972-02-28 09:00:00 ET -31.0798 74.5768 main 2025 2017 _____P______P_ -1 -31.0798 74.5768 5 -31.0798 74.5768 EX 40 7 262
1972051S12115 1972 16 SI MM GIGI:TESSIE 1972-02-28 12:00:00 ET -31.1000 74.2000 reunion main 2017 2001 _____O______O_ -1 -31.1000 74.2000 99 9.90000 -31.1000 74.2000 EX 40 6 259
1972051S12115 1972 16 SI MM GIGI:TESSIE 1972-02-28 15:00:00 ET -31.1998 73.8426 main 1999 1983 _____P______P_ -1 -31.1998 73.8426 99 -31.1998 73.8426 EX 40 6 252
1972051S12115 1972 16 SI MM GIGI:TESSIE 1972-02-28 18:00:00 ET -31.3000 73.5000 reunion main 1983 1959 _____O______O_ -1 -31.3000 73.5000 99 9.90000 -31.3000 73.5000 EX 40 6 258
1972051S12115 1972 16 SI MM GIGI:TESSIE 1972-02-28 21:00:00 ET -31.3273 73.1570 main 1959 1934 _____P______P_ -1 -31.3273 73.1570 99 -31.3273 73.1570 EX 40 6 260
1972051S12115 1972 16 SI MM GIGI:TESSIE 1972-02-29 00:00:00 ET -31.4000 72.8000 reunion main 1934 1917 _____O______O_ -1 -31.4000 72.8000 99 9.90000 -31.4000 72.8000 EX 40 8 248
1972051S12115 1972 16 SI MM GIGI:TESSIE 1972-02-29 03:00:00 ET -31.6128 72.3407 main 1909 1897 _____P______P_ -1 -31.6128 72.3407 99 -31.6128 72.3407 EX 40 8 234
1972051S12115 1972 16 SI MM GIGI:TESSIE 1972-02-29 06:00:00 ET -31.9000 72.0000 reunion main 1897 1862 _____O______O_ -1 -31.9000 72.0000 5 9.90000 -31.9000 72.0000 EX 40 6 211
1972051S12115 1972 16 SI MM GIGI:TESSIE 1972-02-29 09:00:00 ET -32.1697 71.9524 main 1863 1831 _____P______P_ -1 -32.1697 71.9524 5 -32.1697 71.9524 EX 40 6 172
1972051S12115 1972 16 SI MM GIGI:TESSIE 1972-02-29 12:00:00 ET -32.5000 72.1000 reunion main 1831 1790 _____O______O_ -1 -32.5000 72.1000 99 9.90000 -32.5000 72.1000 EX 40 8 159
1972051S12115 1972 16 SI MM GIGI:TESSIE 1972-02-29 15:00:00 ET -32.9500 72.3121 main 1779 1738 _____P______P_ -1 -32.9500 72.3121 99 -32.9500 72.3121 EX 40 10 155
1972051S12115 1972 16 SI MM GIGI:TESSIE 1972-02-29 18:00:00 ET -33.4000 72.6000 reunion main 1738 1708 _____O______O_ -1 -33.4000 72.6000 99 9.90000 -33.4000 72.6000 EX 40 9 147
1972051S12115 1972 16 SI MM GIGI:TESSIE 1972-02-29 21:00:00 ET -33.6924 72.8784 main 1710 1682 _____P______P_ -1 -33.6924 72.8784 99 -33.6924 72.8784 EX 37 8 140
1972051S12115 1972 16 SI MM GIGI:TESSIE 1972-03-01 00:00:00 ET -34.0000 73.2000 reunion main 1682 1643 _____O______O_ -1 -34.0000 73.2000 99 9.90000 -34.0000 73.2000 EX 35 10 143
1972051S12115 1972 16 SI MM GIGI:TESSIE 1972-03-01 03:00:00 ET -34.4529 73.5809 main 1634 1588 _____P______P_ -1 -34.4529 73.5809 99 -34.4529 73.5809 EX 30 12 147
1972051S12115 1972 16 SI MM GIGI:TESSIE 1972-03-01 06:00:00 MX -35.0000 74.0000 reunion main 1588 _____O______O_ -1 -35.0000 74.0000 6 9.90000 -35.0000 74.0000 EX 25 13 148

About IBTrACS Database

This database is a web-friendly format of International Best Track Archive for Climate Stewardship (IBTrACS), a global best track data archive curated by NOAA dating back to 1842.

Updated: 2021-11-26